PWSweather.com
Personal Weather Stations
Station Observations
KMAMEDFI2
Medfield, MA 02052

Medfield, MA 02052

Lat: 42.1900822, Lon: -71.3296889

Elevation: 138

Station Type: Rainwise WS MK-III

http://www.medfieldweather.com

High Low Average
Temperature 35.1°F1.7°C 24.6°F-4.1°C 31.1°F-0.5°C
Dew Point 33.8°F1.0°C 11.1°F-11.6°C 27.0°F-2.8°C
Winds 3.5 mph 5.6 kmh Calm Calm 1.0 mph S1.6 kmh S
Wind Gusts 6.9 mph11.1 kmh -- 1.0 mph1.6 kmh
Humidity 95% 55% 86%
Pressure 30.30 in1026.1 mb 29.54 in1000.3 mb -
Precipitation 0.05 in1.3 mm - -
Hour Temp Dew Point Humidity Winds Wind Gusts Pressure Precip Precip Rate Daily Precip Total
12:00 AM 24.1°F-4.4°C 13.7°F-10.2°C 64% Calm Calm -- 30.29 in1025.7 mb - 0.00 in0.0 mm 0.00 in0.0 mm
12:10 AM 24.2°F-4.3°C 13.4°F-10.3°C 63% Calm Calm -- 30.30 in1026.1 mb - 0.00 in0.0 mm 0.00 in0.0 mm
12:20 AM 24.4°F-4.2°C 13.6°F-10.2°C 63% Calm Calm -- 30.30 in1026.1 mb - 0.00 in0.0 mm 0.00 in0.0 mm
12:30 AM 24.5°F-4.2°C 13.7°F-10.2°C 63% 1.2 mph E1.9 kmh E -- 30.29 in1025.7 mb - 0.00 in0.0 mm 0.00 in0.0 mm
12:40 AM 24.5°F-4.2°C 13.7°F-10.2°C 63% Calm Calm -- 30.30 in1026.1 mb - 0.00 in0.0 mm 0.00 in0.0 mm
12:50 AM 24.5°F-4.2°C 13.0°F-10.6°C 61% Calm Calm -- 30.30 in1026.1 mb - 0.00 in0.0 mm 0.00 in0.0 mm
01:00 AM 24.6°F-4.1°C 12.3°F-10.9°C 59% Calm Calm -- 30.30 in1026.1 mb - 0.00 in0.0 mm 0.00 in0.0 mm
01:10 AM 24.7°F-4.1°C 13.1°F-10.5°C 61% Calm Calm -- 30.30 in1026.1 mb - 0.00 in0.0 mm 0.00 in0.0 mm
01:20 AM 24.8°F-4.0°C 12.1°F-11.1°C 58% Calm Calm -- 30.30 in1026.1 mb - 0.00 in0.0 mm 0.00 in0.0 mm
01:30 AM 25.0°F-3.9°C 11.1°F-11.6°C 55% Calm Calm -- 30.30 in1026.1 mb - 0.00 in0.0 mm 0.00 in0.0 mm
01:40 AM 25.1°F-3.8°C 11.2°F-11.6°C 55% Calm Calm -- 30.30 in1026.1 mb - 0.00 in0.0 mm 0.00 in0.0 mm
01:50 AM 25.2°F-3.8°C 11.3°F-11.5°C 55% Calm Calm -- 30.30 in1026.1 mb - 0.00 in0.0 mm 0.00 in0.0 mm
02:00 AM 25.3°F-3.7°C 11.3°F-11.5°C 55% Calm Calm -- 30.29 in1025.7 mb - 0.00 in0.0 mm 0.00 in0.0 mm
02:10 AM 25.3°F-3.7°C 12.2°F-11.0°C 57% Calm Calm -- 30.30 in1026.1 mb - 0.00 in0.0 mm 0.00 in0.0 mm
02:20 AM 25.4°F-3.7°C 11.4°F-11.4°C 55% Calm Calm 2.3 mph3.7 kmh 30.30 in1026.1 mb - 0.00 in0.0 mm 0.00 in0.0 mm
02:30 AM 25.4°F-3.7°C 12.3°F-10.9°C 57% Calm Calm -- 30.29 in1025.7 mb - 0.00 in0.0 mm 0.00 in0.0 mm
02:40 AM 25.5°F-3.6°C 11.9°F-11.2°C 56% Calm Calm -- 30.30 in1026.1 mb - 0.00 in0.0 mm 0.00 in0.0 mm
02:50 AM 25.5°F-3.6°C 11.5°F-11.4°C 55% Calm Calm -- 30.30 in1026.1 mb - 0.00 in0.0 mm 0.00 in0.0 mm
03:00 AM 25.6°F-3.6°C 12.4°F-10.9°C 57% Calm Calm -- 30.30 in1026.1 mb - 0.00 in0.0 mm 0.00 in0.0 mm
03:10 AM 25.6°F-3.6°C 12.8°F-10.7°C 58% Calm Calm -- 30.30 in1026.1 mb - 0.00 in0.0 mm 0.00 in0.0 mm
03:20 AM 25.6°F-3.6°C 12.8°F-10.7°C 58% Calm Calm -- 30.30 in1026.1 mb - 0.00 in0.0 mm 0.00 in0.0 mm
03:30 AM 25.6°F-3.6°C 12.4°F-10.9°C 57% Calm Calm -- 30.29 in1025.7 mb - 0.00 in0.0 mm 0.00 in0.0 mm
03:40 AM 25.6°F-3.6°C 12.5°F-10.8°C 57% 2.3 mph E3.7 kmh E 2.3 mph3.7 kmh 30.27 in1025.1 mb - 0.00 in0.0 mm 0.00 in0.0 mm
03:50 AM 25.6°F-3.6°C 12.1°F-11.1°C 56% 3.5 mph E5.6 kmh E 2.3 mph3.7 kmh 30.25 in1024.4 mb - 0.00 in0.0 mm 0.00 in0.0 mm
04:00 AM 25.8°F-3.4°C 11.8°F-11.2°C 55% Calm Calm -- 30.26 in1024.7 mb - 0.00 in0.0 mm 0.00 in0.0 mm
04:10 AM 25.8°F-3.4°C 12.7°F-10.7°C 57% Calm Calm -- 30.26 in1024.7 mb - 0.00 in0.0 mm 0.00 in0.0 mm
04:20 AM 26.0°F-3.3°C 12.4°F-10.9°C 56% Calm Calm -- 30.25 in1024.4 mb - 0.00 in0.0 mm 0.00 in0.0 mm
04:30 AM 26.0°F-3.3°C 12.8°F-10.7°C 57% Calm Calm -- 30.25 in1024.4 mb - 0.00 in0.0 mm 0.00 in0.0 mm
04:40 AM 26.1°F-3.3°C 13.7°F-10.2°C 59% Calm Calm 2.3 mph3.7 kmh 30.24 in1024.0 mb - 0.00 in0.0 mm 0.00 in0.0 mm
04:50 AM 26.2°F-3.2°C 14.9°F-9.5°C 62% 2.3 mph ESE3.7 kmh ESE 2.3 mph3.7 kmh 30.23 in1023.7 mb - 0.00 in0.0 mm 0.00 in0.0 mm
05:00 AM 26.2°F-3.2°C 15.0°F-9.4°C 62% Calm Calm -- 30.22 in1023.4 mb - 0.00 in0.0 mm 0.00 in0.0 mm
05:10 AM 26.4°F-3.1°C 15.2°F-9.3°C 62% 1.2 mph SE1.9 kmh SE 3.5 mph5.6 kmh 30.20 in1022.7 mb - 0.00 in0.0 mm 0.00 in0.0 mm
05:20 AM 26.7°F-2.9°C 16.2°F-8.8°C 64% 2.3 mph SE3.7 kmh SE 3.5 mph5.6 kmh 30.17 in1021.7 mb - 0.00 in0.0 mm 0.00 in0.0 mm
05:30 AM 26.8°F-2.9°C 16.3°F-8.7°C 64% 2.3 mph ESE3.7 kmh ESE 5.8 mph9.3 kmh 30.15 in1021.0 mb - 0.00 in0.0 mm 0.00 in0.0 mm
05:40 AM 26.9°F-2.8°C 16.7°F-8.5°C 65% 1.2 mph ESE1.9 kmh ESE 2.3 mph3.7 kmh 30.16 in1021.3 mb - 0.00 in0.0 mm 0.00 in0.0 mm
05:50 AM 27.1°F-2.7°C 17.6°F-8.0°C 67% Calm Calm 2.3 mph3.7 kmh 30.15 in1021.0 mb - 0.00 in0.0 mm 0.00 in0.0 mm
06:00 AM 27.4°F-2.6°C 18.3°F-7.6°C 68% 2.3 mph SSE3.7 kmh SSE 3.5 mph5.6 kmh 30.15 in1021.0 mb - 0.00 in0.0 mm 0.00 in0.0 mm
06:10 AM 27.7°F-2.4°C 18.9°F-7.3°C 69% 2.3 mph SE3.7 kmh SE 2.3 mph3.7 kmh 30.15 in1021.0 mb - 0.00 in0.0 mm 0.00 in0.0 mm
06:20 AM 27.7°F-2.4°C 19.9°F-6.7°C 72% 3.5 mph ESE5.6 kmh ESE 2.3 mph3.7 kmh 30.15 in1021.0 mb - 0.00 in0.0 mm 0.00 in0.0 mm
06:30 AM 27.5°F-2.5°C 21.0°F-6.1°C 76% 2.3 mph SE3.7 kmh SE 3.5 mph5.6 kmh 30.15 in1021.0 mb - 0.00 in0.0 mm 0.00 in0.0 mm
06:40 AM 27.5°F-2.5°C 22.2°F-5.4°C 80% 2.3 mph ESE3.7 kmh ESE 2.3 mph3.7 kmh 30.15 in1021.0 mb - 0.00 in0.0 mm 0.00 in0.0 mm
06:50 AM 27.6°F-2.4°C 22.6°F-5.2°C 81% 3.5 mph E5.6 kmh E 6.9 mph11.1 kmh 30.15 in1021.0 mb - 0.00 in0.0 mm 0.00 in0.0 mm
07:00 AM 27.8°F-2.3°C 23.3°F-4.8°C 83% 1.2 mph ESE1.9 kmh ESE 2.3 mph3.7 kmh 30.14 in1020.7 mb - 0.00 in0.0 mm 0.00 in0.0 mm
07:10 AM 27.9°F-2.3°C 23.4°F-4.8°C 83% 1.2 mph NW1.9 kmh NW 1.2 mph1.9 kmh 30.13 in1020.3 mb - 0.00 in0.0 mm 0.00 in0.0 mm
07:20 AM 28.1°F-2.2°C 23.9°F-4.5°C 84% Calm Calm 2.3 mph3.7 kmh 30.13 in1020.3 mb - 0.00 in0.0 mm 0.00 in0.0 mm
07:30 AM 28.2°F-2.1°C 24.0°F-4.4°C 84% 2.3 mph S3.7 kmh S 2.3 mph3.7 kmh 30.13 in1020.3 mb - 0.00 in0.0 mm 0.00 in0.0 mm
07:40 AM 28.4°F-2.0°C 24.2°F-4.3°C 84% Calm Calm -- 30.13 in1020.3 mb - 0.00 in0.0 mm 0.00 in0.0 mm
07:50 AM 28.4°F-2.0°C 24.8°F-4.0°C 86% 1.2 mph ENE1.9 kmh ENE 2.3 mph3.7 kmh 30.13 in1020.3 mb - 0.00 in0.0 mm 0.00 in0.0 mm
08:00 AM 28.5°F-1.9°C 25.7°F-3.5°C 89% 2.3 mph SE3.7 kmh SE 2.3 mph3.7 kmh 30.12 in1020.0 mb - 0.00 in0.0 mm 0.00 in0.0 mm
08:10 AM 28.5°F-1.9°C 26.2°F-3.2°C 91% 2.3 mph ESE3.7 kmh ESE 2.3 mph3.7 kmh 30.11 in1019.6 mb - 0.00 in0.0 mm 0.00 in0.0 mm
08:20 AM 28.4°F-2.0°C 26.6°F-3.0°C 93% 2.3 mph ESE3.7 kmh ESE 2.3 mph3.7 kmh 30.10 in1019.3 mb - 0.00 in0.0 mm 0.00 in0.0 mm
08:30 AM 28.3°F-2.1°C 26.8°F-2.9°C 94% Calm Calm -- 30.10 in1019.3 mb - 0.00 in0.0 mm 0.00 in0.0 mm
08:40 AM 28.4°F-2.0°C 26.9°F-2.8°C 94% Calm Calm -- 30.10 in1019.3 mb - 0.00 in0.0 mm 0.00 in0.0 mm
08:50 AM 28.5°F-1.9°C 27.0°F-2.8°C 94% Calm Calm -- 30.10 in1019.3 mb - 0.00 in0.0 mm 0.00 in0.0 mm
09:00 AM 28.7°F-1.8°C 27.2°F-2.7°C 94% Calm Calm -- 30.09 in1019.0 mb - 0.00 in0.0 mm 0.00 in0.0 mm
09:10 AM 28.9°F-1.7°C 27.4°F-2.6°C 94% Calm Calm -- 30.09 in1019.0 mb - 0.00 in0.0 mm 0.00 in0.0 mm
09:20 AM 29.1°F-1.6°C 27.6°F-2.4°C 94% Calm Calm -- 30.09 in1019.0 mb - 0.00 in0.0 mm 0.00 in0.0 mm
09:30 AM 29.4°F-1.4°C 27.9°F-2.3°C 94% Calm Calm -- 30.09 in1019.0 mb - 0.00 in0.0 mm 0.00 in0.0 mm
09:40 AM 29.8°F-1.2°C 28.3°F-2.1°C 94% Calm Calm -- 30.08 in1018.6 mb - 0.00 in0.0 mm 0.00 in0.0 mm
09:50 AM 30.3°F-0.9°C 28.8°F-1.8°C 94% Calm Calm -- 30.07 in1018.3 mb - 0.00 in0.0 mm 0.00 in0.0 mm
10:00 AM 30.8°F-0.7°C 29.3°F-1.5°C 94% Calm Calm -- 30.08 in1018.6 mb - 0.00 in0.0 mm 0.00 in0.0 mm
10:10 AM 30.9°F-0.6°C 29.4°F-1.4°C 94% Calm Calm -- 30.07 in1018.3 mb - 0.00 in0.0 mm 0.00 in0.0 mm
10:20 AM 31.3°F-0.4°C 30.0°F-1.1°C 95% Calm Calm -- 30.07 in1018.3 mb - 0.00 in0.0 mm 0.00 in0.0 mm
10:30 AM 31.7°F-0.2°C 30.4°F-0.9°C 95% Calm Calm -- 30.07 in1018.3 mb - 0.00 in0.0 mm 0.00 in0.0 mm
10:40 AM 31.9°F-0.1°C 30.6°F-0.8°C 95% Calm Calm -- 30.07 in1018.3 mb - 0.00 in0.0 mm 0.00 in0.0 mm
10:50 AM 32.3°F0.2°C 31.0°F-0.6°C 95% Calm Calm -- 30.07 in1018.3 mb - 0.00 in0.0 mm 0.00 in0.0 mm
11:00 AM 32.7°F0.4°C 31.4°F-0.3°C 95% Calm Calm -- 30.07 in1018.3 mb - 0.00 in0.0 mm 0.00 in0.0 mm
11:10 AM 32.9°F0.5°C 31.6°F-0.2°C 95% Calm Calm -- 30.06 in1017.9 mb - 0.00 in0.0 mm 0.00 in0.0 mm
11:20 AM 33.1°F0.6°C 31.8°F-0.1°C 95% Calm Calm -- 30.05 in1017.6 mb - 0.00 in0.0 mm 0.00 in0.0 mm
11:30 AM 33.3°F0.7°C 32.0°F0.0°C 95% Calm Calm -- 30.04 in1017.3 mb - 0.00 in0.0 mm 0.00 in0.0 mm
11:40 AM 33.5°F0.8°C 32.2°F0.1°C 95% Calm Calm -- 30.04 in1017.3 mb - 0.00 in0.0 mm 0.00 in0.0 mm
11:50 AM 33.9°F1.1°C 32.6°F0.3°C 95% Calm Calm -- 30.02 in1016.6 mb - 0.00 in0.0 mm 0.00 in0.0 mm
12:00 PM 33.8°F1.0°C 32.5°F0.3°C 95% Calm Calm -- 30.01 in1016.3 mb - 0.00 in0.0 mm 0.00 in0.0 mm
12:10 PM 33.9°F1.1°C 32.6°F0.3°C 95% Calm Calm -- 30.01 in1016.3 mb - 0.00 in0.0 mm 0.00 in0.0 mm
12:20 PM 34.2°F1.2°C 32.9°F0.5°C 95% Calm Calm -- 30.00 in1015.9 mb - 0.00 in0.0 mm 0.00 in0.0 mm
12:30 PM 34.3°F1.3°C 33.0°F0.6°C 95% Calm Calm -- 29.99 in1015.6 mb - 0.00 in0.0 mm 0.00 in0.0 mm
12:40 PM 34.3°F1.3°C 33.0°F0.6°C 95% Calm Calm -- 29.99 in1015.6 mb - 0.00 in0.0 mm 0.00 in0.0 mm
12:50 PM 34.2°F1.2°C 32.9°F0.5°C 95% 2.3 mph N3.7 kmh N 2.3 mph3.7 kmh 29.98 in1015.2 mb - 0.00 in0.0 mm 0.00 in0.0 mm
01:00 PM 34.2°F1.2°C 32.9°F0.5°C 95% 1.2 mph N1.9 kmh N 1.2 mph1.9 kmh 29.97 in1014.9 mb - 0.00 in0.0 mm 0.00 in0.0 mm
01:10 PM 34.1°F1.2°C 32.8°F0.4°C 95% 3.5 mph N5.6 kmh N 2.3 mph3.7 kmh 29.96 in1014.6 mb - 0.00 in0.0 mm 0.00 in0.0 mm
01:20 PM 34.2°F1.2°C 32.9°F0.5°C 95% Calm Calm -- 29.95 in1014.2 mb - 0.00 in0.0 mm 0.00 in0.0 mm
01:30 PM 34.0°F1.1°C 32.7°F0.4°C 95% Calm Calm -- 29.95 in1014.2 mb - 0.00 in0.0 mm 0.00 in0.0 mm
01:40 PM 34.0°F1.1°C 32.7°F0.4°C 95% Calm Calm -- 29.94 in1013.9 mb - 0.00 in0.0 mm 0.00 in0.0 mm
01:50 PM 34.2°F1.2°C 32.9°F0.5°C 95% Calm Calm -- 29.93 in1013.5 mb - 0.00 in0.0 mm 0.00 in0.0 mm
02:00 PM 34.2°F1.2°C 32.9°F0.5°C 95% 2.3 mph N3.7 kmh N 2.3 mph3.7 kmh 29.92 in1013.2 mb - 0.00 in0.0 mm 0.00 in0.0 mm
02:10 PM 34.3°F1.3°C 33.0°F0.6°C 95% 2.3 mph NW3.7 kmh NW 2.3 mph3.7 kmh 29.91 in1012.9 mb - 0.00 in0.0 mm 0.00 in0.0 mm
02:20 PM 34.5°F1.4°C 33.2°F0.7°C 95% Calm Calm -- 29.90 in1012.5 mb - 0.00 in0.0 mm 0.00 in0.0 mm
02:30 PM 34.7°F1.5°C 33.4°F0.8°C 95% 2.3 mph NW3.7 kmh NW 2.3 mph3.7 kmh 29.90 in1012.5 mb - 0.00 in0.0 mm 0.00 in0.0 mm
02:40 PM 34.7°F1.5°C 33.4°F0.8°C 95% 1.2 mph NW1.9 kmh NW 2.3 mph3.7 kmh 29.89 in1012.2 mb - 0.00 in0.0 mm 0.00 in0.0 mm
02:50 PM 34.8°F1.6°C 33.5°F0.8°C 95% 2.3 mph NW3.7 kmh NW 2.3 mph3.7 kmh 29.89 in1012.2 mb - 0.00 in0.0 mm 0.00 in0.0 mm
03:00 PM 34.7°F1.5°C 33.4°F0.8°C 95% 2.3 mph NW3.7 kmh NW 2.3 mph3.7 kmh 29.88 in1011.9 mb - 0.00 in0.0 mm 0.00 in0.0 mm
03:10 PM 34.7°F1.5°C 33.4°F0.8°C 95% 3.5 mph NW5.6 kmh NW 2.3 mph3.7 kmh 29.88 in1011.9 mb - 0.00 in0.0 mm 0.00 in0.0 mm
03:20 PM 34.9°F1.6°C 33.6°F0.9°C 95% 1.2 mph NW1.9 kmh NW 1.2 mph1.9 kmh 29.87 in1011.5 mb - 0.01 in0.3 mm 0.01 in0.3 mm
03:30 PM 34.9°F1.6°C 33.6°F0.9°C 95% 2.3 mph NW3.7 kmh NW 2.3 mph3.7 kmh 29.86 in1011.2 mb - 0.00 in0.0 mm 0.01 in0.3 mm
03:40 PM 35.1°F1.7°C 33.8°F1.0°C 95% 1.2 mph NW1.9 kmh NW 1.2 mph1.9 kmh 29.86 in1011.2 mb - 0.00 in0.0 mm 0.01 in0.3 mm
03:50 PM 35.0°F1.7°C 33.7°F0.9°C 95% 2.3 mph NW3.7 kmh NW 2.3 mph3.7 kmh 29.85 in1010.8 mb - 0.01 in0.3 mm 0.01 in0.3 mm
04:00 PM 34.9°F1.6°C 33.6°F0.9°C 95% 2.3 mph W3.7 kmh W 2.3 mph3.7 kmh 29.85 in1010.8 mb - 0.01 in0.3 mm 0.01 in0.3 mm
04:10 PM 34.6°F1.4°C 33.4°F0.8°C 95% 1.2 mph N1.9 kmh N 2.3 mph3.7 kmh 29.84 in1010.5 mb - 0.01 in0.3 mm 0.01 in0.3 mm
04:20 PM 34.3°F1.3°C 33.0°F0.6°C 95% Calm Calm -- 29.84 in1010.5 mb - 0.00 in0.0 mm 0.01 in0.3 mm
04:30 PM 34.2°F1.2°C 32.9°F0.5°C 95% Calm Calm -- 29.83 in1010.2 mb - 0.00 in0.0 mm 0.01 in0.3 mm
04:40 PM 34.1°F1.2°C 32.8°F0.4°C 95% 1.2 mph W1.9 kmh W -- 29.83 in1010.2 mb - 0.00 in0.0 mm 0.01 in0.3 mm
04:50 PM 34.1°F1.2°C 32.8°F0.4°C 95% Calm Calm -- 29.82 in1009.8 mb - 0.00 in0.0 mm 0.01 in0.3 mm
05:00 PM 34.0°F1.1°C 32.7°F0.4°C 95% Calm Calm -- 29.82 in1009.8 mb - 0.00 in0.0 mm 0.01 in0.3 mm
05:10 PM 33.9°F1.1°C 32.6°F0.3°C 95% Calm Calm -- 29.81 in1009.5 mb - 0.00 in0.0 mm 0.01 in0.3 mm
05:20 PM 33.9°F1.1°C 32.6°F0.3°C 95% 1.2 mph W1.9 kmh W -- 29.80 in1009.1 mb - 0.00 in0.0 mm 0.01 in0.3 mm
05:30 PM 33.7°F0.9°C 32.5°F0.3°C 95% Calm Calm -- 29.79 in1008.8 mb - 0.00 in0.0 mm 0.01 in0.3 mm
05:40 PM 33.7°F0.9°C 32.4°F0.2°C 95% Calm Calm 2.3 mph3.7 kmh 29.78 in1008.5 mb - 0.00 in0.0 mm 0.01 in0.3 mm
05:50 PM 33.7°F0.9°C 32.4°F0.2°C 95% Calm Calm -- 29.78 in1008.5 mb - 0.00 in0.0 mm 0.01 in0.3 mm
06:00 PM 33.6°F0.9°C 32.3°F0.2°C 95% Calm Calm 1.2 mph1.9 kmh 29.78 in1008.5 mb - 0.00 in0.0 mm 0.01 in0.3 mm
06:10 PM 33.5°F0.8°C 32.2°F0.1°C 95% Calm Calm -- 29.77 in1008.1 mb - 0.00 in0.0 mm 0.01 in0.3 mm
06:20 PM 33.4°F0.8°C 32.1°F0.1°C 95% Calm Calm -- 29.77 in1008.1 mb - 0.00 in0.0 mm 0.01 in0.3 mm
06:30 PM 33.3°F0.7°C 32.0°F0.0°C 95% 2.3 mph W3.7 kmh W 2.3 mph3.7 kmh 29.76 in1007.8 mb - 0.00 in0.0 mm 0.01 in0.3 mm
06:40 PM 33.3°F0.7°C 32.0°F0.0°C 95% 1.2 mph W1.9 kmh W 2.3 mph3.7 kmh 29.76 in1007.8 mb - 0.00 in0.0 mm 0.01 in0.3 mm
06:50 PM 33.3°F0.7°C 32.0°F0.0°C 95% Calm Calm -- 29.76 in1007.8 mb - 0.00 in0.0 mm 0.01 in0.3 mm
07:00 PM 33.3°F0.7°C 32.0°F0.0°C 95% Calm Calm -- 29.76 in1007.8 mb - 0.00 in0.0 mm 0.01 in0.3 mm
07:10 PM 33.3°F0.7°C 32.0°F0.0°C 95% Calm Calm 1.2 mph1.9 kmh 29.75 in1007.5 mb - 0.00 in0.0 mm 0.01 in0.3 mm
07:20 PM 33.3°F0.7°C 32.0°F0.0°C 95% 1.2 mph W1.9 kmh W 2.3 mph3.7 kmh 29.74 in1007.1 mb - 0.00 in0.0 mm 0.01 in0.3 mm
07:30 PM 33.4°F0.8°C 32.1°F0.1°C 95% Calm Calm -- 29.74 in1007.1 mb - 0.01 in0.3 mm 0.02 in0.5 mm
07:40 PM 33.4°F0.8°C 32.1°F0.1°C 95% 1.2 mph ENE1.9 kmh ENE -- 29.73 in1006.8 mb - 0.01 in0.3 mm 0.02 in0.5 mm
07:50 PM 33.4°F0.8°C 32.1°F0.1°C 95% 1.2 mph W1.9 kmh W 2.3 mph3.7 kmh 29.73 in1006.8 mb - 0.01 in0.3 mm 0.02 in0.5 mm
08:00 PM 33.4°F0.8°C 32.1°F0.1°C 95% Calm Calm 1.2 mph1.9 kmh 29.72 in1006.4 mb - 0.01 in0.3 mm 0.02 in0.5 mm
08:10 PM 33.4°F0.8°C 32.1°F0.1°C 95% Calm Calm -- 29.72 in1006.4 mb - 0.01 in0.3 mm 0.02 in0.5 mm
08:20 PM 33.4°F0.8°C 32.1°F0.1°C 95% Calm Calm -- 29.71 in1006.1 mb - 0.01 in0.3 mm 0.02 in0.5 mm
08:30 PM 33.3°F0.7°C 32.0°F0.0°C 95% Calm Calm -- 29.70 in1005.8 mb - 0.01 in0.3 mm 0.02 in0.5 mm
08:40 PM 33.3°F0.7°C 32.0°F0.0°C 95% Calm Calm -- 29.70 in1005.8 mb - 0.00 in0.0 mm 0.02 in0.5 mm
08:50 PM 33.4°F0.8°C 32.1°F0.1°C 95% Calm Calm -- 29.70 in1005.8 mb - 0.00 in0.0 mm 0.02 in0.5 mm
09:00 PM 33.5°F0.8°C 32.2°F0.1°C 95% Calm Calm -- 29.69 in1005.4 mb - 0.00 in0.0 mm 0.02 in0.5 mm
09:10 PM 33.5°F0.8°C 32.2°F0.1°C 95% Calm Calm -- 29.68 in1005.1 mb - 0.00 in0.0 mm 0.02 in0.5 mm
09:20 PM 33.4°F0.8°C 32.1°F0.1°C 95% 1.2 mph W1.9 kmh W 2.3 mph3.7 kmh 29.67 in1004.7 mb - 0.00 in0.0 mm 0.02 in0.5 mm
09:30 PM 33.3°F0.7°C 32.0°F0.0°C 95% Calm Calm -- 29.68 in1005.1 mb - 0.00 in0.0 mm 0.02 in0.5 mm
09:40 PM 33.5°F0.8°C 32.2°F0.1°C 95% 2.3 mph W3.7 kmh W 2.3 mph3.7 kmh 29.69 in1005.4 mb - 0.00 in0.0 mm 0.02 in0.5 mm
09:50 PM 33.7°F0.9°C 32.4°F0.2°C 95% 2.3 mph SW3.7 kmh SW 2.3 mph3.7 kmh 29.69 in1005.4 mb - 0.00 in0.0 mm 0.02 in0.5 mm
10:00 PM 33.9°F1.1°C 32.6°F0.3°C 95% 2.3 mph WSW3.7 kmh WSW 2.3 mph3.7 kmh 29.69 in1005.4 mb - 0.00 in0.0 mm 0.02 in0.5 mm
10:10 PM 33.9°F1.1°C 32.6°F0.3°C 95% 1.2 mph WSW1.9 kmh WSW 2.3 mph3.7 kmh 29.70 in1005.8 mb - 0.01 in0.3 mm 0.03 in0.8 mm
10:20 PM 33.9°F1.1°C 32.6°F0.3°C 95% 2.3 mph NE3.7 kmh NE 2.3 mph3.7 kmh 29.68 in1005.1 mb - 0.01 in0.3 mm 0.03 in0.8 mm
10:30 PM 33.8°F1.0°C 32.5°F0.3°C 95% Calm Calm -- 29.65 in1004.1 mb - 0.01 in0.3 mm 0.03 in0.8 mm
10:40 PM 33.7°F0.9°C 32.4°F0.2°C 95% 1.2 mph SSE1.9 kmh SSE 2.3 mph3.7 kmh 29.64 in1003.7 mb - 0.03 in0.8 mm 0.05 in1.3 mm
10:50 PM 33.6°F0.9°C 32.3°F0.2°C 95% 1.2 mph ESE1.9 kmh ESE 1.2 mph1.9 kmh 29.62 in1003.0 mb - 0.03 in0.8 mm 0.05 in1.3 mm
11:00 PM 33.3°F0.7°C 32.0°F0.0°C 95% Calm Calm -- 29.60 in1002.4 mb - 0.03 in0.8 mm 0.05 in1.3 mm
11:10 PM 33.1°F0.6°C 31.8°F-0.1°C 95% Calm Calm 2.3 mph3.7 kmh 29.59 in1002.0 mb - 0.02 in0.5 mm 0.05 in1.3 mm
11:20 PM 32.9°F0.5°C 31.6°F-0.2°C 95% Calm Calm -- 29.58 in1001.7 mb - 0.02 in0.5 mm 0.05 in1.3 mm
11:30 PM 32.9°F0.5°C 31.6°F-0.2°C 95% Calm Calm -- 29.58 in1001.7 mb - 0.02 in0.5 mm 0.05 in1.3 mm
11:40 PM 32.9°F0.5°C 31.6°F-0.2°C 95% Calm Calm -- 29.59 in1002.0 mb - 0.00 in0.0 mm 0.05 in1.3 mm
11:50 PM 32.9°F0.5°C 31.6°F-0.2°C 95% Calm Calm -- 29.58 in1001.7 mb - 0.00 in0.0 mm 0.05 in1.3 mm